Kezdőlap
METAR-TAF:

METAR-TAF

Repülőterek :

N’Djamena, Csád

földrajzi szélesség: 12-08N, földrajzi hosszúság: 015-02E, magasság: 295 m

Jelenlegi meteorológiai megfigyelések

A jelentés 34 perccel ezelõtt készült, 17:00 UTC
Nyugati szél 12 kt
Hőmérséklet 38°C
Páratartalom 29%
Légköri nyomás 1007 hPa
Látótávolság: 4000 m
Kevés felhő 4000 lábon
Kevés felhő 5000 lábon, Cumulonimbus.
kiterjedt por,

METAR: FTTJ 281700Z 26012KT 4000 DU FEW040 FEW050CB 38/17 Q1007 NOSIG

Idő: 18:34 (17:34 UTC)

Előrejelzés

A jelentés 6 órával és 34 perccel ezelõtt készült, 11:00 UTC
Az előrejelzés 28-én 12 óra UTC és 29-én 18 óra UTC között érvényes
Délnyugati szél 8 kt
Látótávolság: 8000 m
Kevés felhő 4000 lábon
Valószínűség 40% :
28-én 14 óra UTC és 28-én 21 óra UTC között ideiglenes
Különbözõ irányokból fújó szél 20 kt
Látótávolság: 2500 m
porvihar, zivatar, esõ,

TAF: FTTJ 281100Z 2812/2918 22008KT 8000 FEW040 PROB40 TEMPO 2814/2821 VRB20KT 2500 BLDU TSRA

Meteorológiai megfigyelések és előrejelzések több, mint 4000 repülőtéren (METAR és TAF jelentéseket).

A térképen piros és sárga pontok jelzik az elérhető meteorológiai állomásokat.

Mozgassa az egeret a pont fölött, hogy megjelenjen az állomás neve.

Azután kattintson az időjárási megfigyelések és előrejelzések megtekintéséhez.

A térkép megváltoztatása: kattintson a fekete keresztel jelölt zöld gombra ráközelítéshez, a vonallal jelölt zöld gombra távolításhoz, vagy a zöld nyilakra a szomszédos térképek eléréséhez.


METAR-TAF: